sensor_id;sensor_type;location;lat;lon;timestamp;temperature;humidity
19945;DHT22;10134;50.952;6.930;2023-11-22T00:01:31;8.00;99.90
19945;DHT22;10134;50.952;6.930;2023-11-22T00:04:03;8.00;99.90
19945;DHT22;10134;50.952;6.930;2023-11-22T00:06:32;8.00;99.90
19945;DHT22;10134;50.952;6.930;2023-11-22T00:09:00;8.00;99.90
19945;DHT22;10134;50.952;6.930;2023-11-22T00:11:29;8.00;99.90
19945;DHT22;10134;50.952;6.930;2023-11-22T00:13:58;8.00;99.90
19945;DHT22;10134;50.952;6.930;2023-11-22T00:16:27;8.00;99.90
19945;DHT22;10134;50.952;6.930;2023-11-22T00:18:59;7.90;99.90
19945;DHT22;10134;50.952;6.930;2023-11-22T00:21:27;7.90;99.90
19945;DHT22;10134;50.952;6.930;2023-11-22T00:23:57;7.90;99.90
19945;DHT22;10134;50.952;6.930;2023-11-22T00:26:25;7.90;99.90
19945;DHT22;10134;50.952;6.930;2023-11-22T00:28:57;7.90;99.90
19945;DHT22;10134;50.952;6.930;2023-11-22T00:31:27;7.90;99.90
19945;DHT22;10134;50.952;6.930;2023-11-22T00:33:58;7.80;99.90
19945;DHT22;10134;50.952;6.930;2023-11-22T00:36:27;7.80;99.90
19945;DHT22;10134;50.952;6.930;2023-11-22T00:38:56;7.80;99.90
19945;DHT22;10134;50.952;6.930;2023-11-22T00:41:30;7.80;99.90
19945;DHT22;10134;50.952;6.930;2023-11-22T00:43:59;7.70;99.90
19945;DHT22;10134;50.952;6.930;2023-11-22T00:46:28;7.70;99.90
19945;DHT22;10134;50.952;6.930;2023-11-22T00:48:57;7.70;99.90
19945;DHT22;10134;50.952;6.930;2023-11-22T00:51:27;7.70;99.90
19945;DHT22;10134;50.952;6.930;2023-11-22T00:53:55;7.70;99.90
19945;DHT22;10134;50.952;6.930;2023-11-22T00:56:24;7.80;99.90
19945;DHT22;10134;50.952;6.930;2023-11-22T00:58:53;7.80;99.90
19945;DHT22;10134;50.952;6.930;2023-11-22T01:01:22;7.70;99.90
19945;DHT22;10134;50.952;6.930;2023-11-22T01:03:51;7.70;99.90
19945;DHT22;10134;50.952;6.930;2023-11-22T01:06:20;7.70;99.90
19945;DHT22;10134;50.952;6.930;2023-11-22T01:08:51;7.70;99.90
19945;DHT22;10134;50.952;6.930;2023-11-22T01:11:20;7.70;99.90
19945;DHT22;10134;50.952;6.930;2023-11-22T01:13:49;7.70;99.90
19945;DHT22;10134;50.952;6.930;2023-11-22T01:16:18;7.70;99.90
19945;DHT22;10134;50.952;6.930;2023-11-22T01:18:47;7.70;99.90
19945;DHT22;10134;50.952;6.930;2023-11-22T01:21:16;7.70;99.90
19945;DHT22;10134;50.952;6.930;2023-11-22T01:23:44;7.70;99.90
19945;DHT22;10134;50.952;6.930;2023-11-22T01:26:15;7.60;99.90
19945;DHT22;10134;50.952;6.930;2023-11-22T01:28:45;7.70;99.90
19945;DHT22;10134;50.952;6.930;2023-11-22T01:31:13;7.70;99.90
19945;DHT22;10134;50.952;6.930;2023-11-22T01:33:42;7.60;99.90
19945;DHT22;10134;50.952;6.930;2023-11-22T01:36:11;7.70;99.90
19945;DHT22;10134;50.952;6.930;2023-11-22T01:38:40;7.60;99.90
19945;DHT22;10134;50.952;6.930;2023-11-22T01:41:09;7.60;99.90
19945;DHT22;10134;50.952;6.930;2023-11-22T01:43:41;7.60;99.90
19945;DHT22;10134;50.952;6.930;2023-11-22T01:46:20;7.60;99.90
19945;DHT22;10134;50.952;6.930;2023-11-22T01:48:51;7.60;99.90
19945;DHT22;10134;50.952;6.930;2023-11-22T01:51:21;7.50;99.90
19945;DHT22;10134;50.952;6.930;2023-11-22T01:53:52;7.50;99.90
19945;DHT22;10134;50.952;6.930;2023-11-22T01:56:26;7.50;99.90
19945;DHT22;10134;50.952;6.930;2023-11-22T01:58:56;7.50;99.90
19945;DHT22;10134;50.952;6.930;2023-11-22T02:01:28;7.50;99.90
19945;DHT22;10134;50.952;6.930;2023-11-22T02:03:58;7.50;99.90
19945;DHT22;10134;50.952;6.930;2023-11-22T02:06:28;7.50;99.90
19945;DHT22;10134;50.952;6.930;2023-11-22T02:08:59;7.50;99.90
19945;DHT22;10134;50.952;6.930;2023-11-22T02:11:28;7.40;99.90
19945;DHT22;10134;50.952;6.930;2023-11-22T02:13:58;7.40;99.90
19945;DHT22;10134;50.952;6.930;2023-11-22T02:16:27;7.40;99.90
19945;DHT22;10134;50.952;6.930;2023-11-22T02:18:56;7.40;99.90
19945;DHT22;10134;50.952;6.930;2023-11-22T02:21:25;7.40;99.90
19945;DHT22;10134;50.952;6.930;2023-11-22T02:23:55;7.40;99.90
19945;DHT22;10134;50.952;6.930;2023-11-22T02:26:24;7.50;99.90
19945;DHT22;10134;50.952;6.930;2023-11-22T02:28:53;7.40;99.90
19945;DHT22;10134;50.952;6.930;2023-11-22T02:31:22;7.50;99.90
19945;DHT22;10134;50.952;6.930;2023-11-22T02:33:51;7.40;99.90
19945;DHT22;10134;50.952;6.930;2023-11-22T02:36:20;7.40;99.90
19945;DHT22;10134;50.952;6.930;2023-11-22T02:38:49;7.40;99.90
19945;DHT22;10134;50.952;6.930;2023-11-22T02:41:19;7.40;99.90
19945;DHT22;10134;50.952;6.930;2023-11-22T02:43:48;7.40;99.90
19945;DHT22;10134;50.952;6.930;2023-11-22T02:46:18;7.40;99.90
19945;DHT22;10134;50.952;6.930;2023-11-22T02:48:46;7.40;99.90
19945;DHT22;10134;50.952;6.930;2023-11-22T02:51:16;7.40;99.90
19945;DHT22;10134;50.952;6.930;2023-11-22T02:53:45;7.30;99.90
19945;DHT22;10134;50.952;6.930;2023-11-22T02:56:15;7.30;99.90
19945;DHT22;10134;50.952;6.930;2023-11-22T02:58:46;7.30;99.90
19945;DHT22;10134;50.952;6.930;2023-11-22T03:01:15;7.30;99.90
19945;DHT22;10134;50.952;6.930;2023-11-22T03:03:43;7.30;99.90
19945;DHT22;10134;50.952;6.930;2023-11-22T03:06:12;7.30;99.90
19945;DHT22;10134;50.952;6.930;2023-11-22T03:08:41;7.30;99.90
19945;DHT22;10134;50.952;6.930;2023-11-22T03:11:10;7.30;99.90
19945;DHT22;10134;50.952;6.930;2023-11-22T03:13:38;7.30;99.90
19945;DHT22;10134;50.952;6.930;2023-11-22T03:16:08;7.20;99.90
19945;DHT22;10134;50.952;6.930;2023-11-22T03:18:38;7.20;99.90
19945;DHT22;10134;50.952;6.930;2023-11-22T03:21:06;7.20;99.90
19945;DHT22;10134;50.952;6.930;2023-11-22T03:23:37;7.20;99.90
19945;DHT22;10134;50.952;6.930;2023-11-22T03:26:07;7.20;99.90
19945;DHT22;10134;50.952;6.930;2023-11-22T03:28:37;7.20;99.90
19945;DHT22;10134;50.952;6.930;2023-11-22T03:31:07;7.10;99.90
19945;DHT22;10134;50.952;6.930;2023-11-22T03:33:36;7.10;99.90
19945;DHT22;10134;50.952;6.930;2023-11-22T03:36:06;7.10;99.90
19945;DHT22;10134;50.952;6.930;2023-11-22T03:38:34;7.10;99.90
19945;DHT22;10134;50.952;6.930;2023-11-22T03:41:03;7.00;99.90
19945;DHT22;10134;50.952;6.930;2023-11-22T03:43:32;7.10;99.90
19945;DHT22;10134;50.952;6.930;2023-11-22T03:46:02;7.00;99.90
19945;DHT22;10134;50.952;6.930;2023-11-22T03:48:32;7.00;99.90
19945;DHT22;10134;50.952;6.930;2023-11-22T03:51:01;7.00;99.90
19945;DHT22;10134;50.952;6.930;2023-11-22T03:53:30;6.90;99.90
19945;DHT22;10134;50.952;6.930;2023-11-22T03:55:59;6.90;99.90
19945;DHT22;10134;50.952;6.930;2023-11-22T03:58:28;6.80;99.90
19945;DHT22;10134;50.952;6.930;2023-11-22T04:00:57;6.80;99.90
19945;DHT22;10134;50.952;6.930;2023-11-22T04:03:26;6.80;99.90
19945;DHT22;10134;50.952;6.930;2023-11-22T04:05:57;6.70;99.90
19945;DHT22;10134;50.952;6.930;2023-11-22T04:08:25;6.70;99.90
19945;DHT22;10134;50.952;6.930;2023-11-22T04:10:54;6.60;99.90
19945;DHT22;10134;50.952;6.930;2023-11-22T04:13:23;6.50;99.90
19945;DHT22;10134;50.952;6.930;2023-11-22T04:15:52;6.40;99.90
19945;DHT22;10134;50.952;6.930;2023-11-22T04:18:22;6.40;99.90
19945;DHT22;10134;50.952;6.930;2023-11-22T04:20:52;6.40;99.90
19945;DHT22;10134;50.952;6.930;2023-11-22T04:23:22;6.30;99.90
19945;DHT22;10134;50.952;6.930;2023-11-22T04:25:50;6.30;99.90
19945;DHT22;10134;50.952;6.930;2023-11-22T04:28:19;6.30;99.90
19945;DHT22;10134;50.952;6.930;2023-11-22T04:30:48;6.30;99.90
19945;DHT22;10134;50.952;6.930;2023-11-22T04:33:16;6.20;99.90
19945;DHT22;10134;50.952;6.930;2023-11-22T04:35:45;6.20;99.90
19945;DHT22;10134;50.952;6.930;2023-11-22T04:38:14;6.20;99.90
19945;DHT22;10134;50.952;6.930;2023-11-22T04:40:44;6.10;99.90
19945;DHT22;10134;50.952;6.930;2023-11-22T04:43:12;6.00;99.90
19945;DHT22;10134;50.952;6.930;2023-11-22T04:45:41;6.10;99.90
19945;DHT22;10134;50.952;6.930;2023-11-22T04:48:10;6.00;99.90
19945;DHT22;10134;50.952;6.930;2023-11-22T04:50:39;6.00;99.90
19945;DHT22;10134;50.952;6.930;2023-11-22T04:53:08;6.00;99.90
19945;DHT22;10134;50.952;6.930;2023-11-22T04:55:37;6.00;99.90
19945;DHT22;10134;50.952;6.930;2023-11-22T04:58:07;6.00;99.90
19945;DHT22;10134;50.952;6.930;2023-11-22T05:00:35;5.90;99.90
19945;DHT22;10134;50.952;6.930;2023-11-22T05:03:04;5.90;99.90
19945;DHT22;10134;50.952;6.930;2023-11-22T05:05:33;5.90;99.90
19945;DHT22;10134;50.952;6.930;2023-11-22T05:08:02;5.80;99.90
19945;DHT22;10134;50.952;6.930;2023-11-22T05:10:31;5.80;99.90
19945;DHT22;10134;50.952;6.930;2023-11-22T05:12:59;5.80;99.90
19945;DHT22;10134;50.952;6.930;2023-11-22T05:15:30;5.80;99.90
19945;DHT22;10134;50.952;6.930;2023-11-22T05:17:59;5.80;99.90
19945;DHT22;10134;50.952;6.930;2023-11-22T05:20:28;5.80;99.90
19945;DHT22;10134;50.952;6.930;2023-11-22T05:22:57;5.70;99.90
19945;DHT22;10134;50.952;6.930;2023-11-22T05:25:25;5.70;99.90
19945;DHT22;10134;50.952;6.930;2023-11-22T05:27:54;5.70;99.90
19945;DHT22;10134;50.952;6.930;2023-11-22T05:30:22;5.60;99.90
19945;DHT22;10134;50.952;6.930;2023-11-22T05:32:54;5.60;99.90
19945;DHT22;10134;50.952;6.930;2023-11-22T05:35:23;5.60;99.90
19945;DHT22;10134;50.952;6.930;2023-11-22T05:37:52;5.50;99.90
19945;DHT22;10134;50.952;6.930;2023-11-22T05:40:20;5.50;99.90
19945;DHT22;10134;50.952;6.930;2023-11-22T05:42:49;5.50;99.90
19945;DHT22;10134;50.952;6.930;2023-11-22T05:45:17;5.50;99.90
19945;DHT22;10134;50.952;6.930;2023-11-22T05:47:46;5.50;99.90
19945;DHT22;10134;50.952;6.930;2023-11-22T05:50:17;5.50;99.90
19945;DHT22;10134;50.952;6.930;2023-11-22T05:52:46;5.50;99.90
19945;DHT22;10134;50.952;6.930;2023-11-22T05:55:15;5.50;99.90
19945;DHT22;10134;50.952;6.930;2023-11-22T05:57:45;5.50;99.90
19945;DHT22;10134;50.952;6.930;2023-11-22T06:00:14;5.50;99.90
19945;DHT22;10134;50.952;6.930;2023-11-22T06:02:43;5.50;99.90
19945;DHT22;10134;50.952;6.930;2023-11-22T06:05:16;5.50;99.90
19945;DHT22;10134;50.952;6.930;2023-11-22T06:07:45;5.50;99.90
19945;DHT22;10134;50.952;6.930;2023-11-22T06:10:14;5.50;99.90
19945;DHT22;10134;50.952;6.930;2023-11-22T06:12:43;5.50;99.90
19945;DHT22;10134;50.952;6.930;2023-11-22T06:15:12;5.50;99.90
19945;DHT22;10134;50.952;6.930;2023-11-22T06:17:41;5.50;99.90
19945;DHT22;10134;50.952;6.930;2023-11-22T06:20:10;5.50;99.90
19945;DHT22;10134;50.952;6.930;2023-11-22T06:22:40;5.50;99.90
19945;DHT22;10134;50.952;6.930;2023-11-22T06:25:09;5.40;99.90
19945;DHT22;10134;50.952;6.930;2023-11-22T06:27:39;5.40;99.90
19945;DHT22;10134;50.952;6.930;2023-11-22T06:30:08;5.40;99.90
19945;DHT22;10134;50.952;6.930;2023-11-22T06:32:37;5.40;99.90
19945;DHT22;10134;50.952;6.930;2023-11-22T06:35:06;5.30;99.90
19945;DHT22;10134;50.952;6.930;2023-11-22T06:37:37;5.30;99.90
19945;DHT22;10134;50.952;6.930;2023-11-22T06:40:08;5.30;99.90
19945;DHT22;10134;50.952;6.930;2023-11-22T06:42:37;5.20;99.90
19945;DHT22;10134;50.952;6.930;2023-11-22T06:45:06;5.20;99.90
19945;DHT22;10134;50.952;6.930;2023-11-22T06:47:37;5.20;99.90
19945;DHT22;10134;50.952;6.930;2023-11-22T06:50:06;5.10;99.90
19945;DHT22;10134;50.952;6.930;2023-11-22T06:52:37;5.10;99.90
19945;DHT22;10134;50.952;6.930;2023-11-22T06:55:09;5.10;99.90
19945;DHT22;10134;50.952;6.930;2023-11-22T06:57:38;5.10;99.90
19945;DHT22;10134;50.952;6.930;2023-11-22T07:00:08;5.00;99.90
19945;DHT22;10134;50.952;6.930;2023-11-22T07:02:37;5.00;99.90
19945;DHT22;10134;50.952;6.930;2023-11-22T07:05:07;5.10;99.90
19945;DHT22;10134;50.952;6.930;2023-11-22T07:07:38;5.00;99.90
19945;DHT22;10134;50.952;6.930;2023-11-22T07:10:09;5.10;99.90
19945;DHT22;10134;50.952;6.930;2023-11-22T07:12:39;5.00;99.90
19945;DHT22;10134;50.952;6.930;2023-11-22T07:15:10;5.10;99.90
19945;DHT22;10134;50.952;6.930;2023-11-22T07:17:39;5.00;99.90
19945;DHT22;10134;50.952;6.930;2023-11-22T07:20:09;5.10;99.90
19945;DHT22;10134;50.952;6.930;2023-11-22T07:22:44;5.10;99.90
19945;DHT22;10134;50.952;6.930;2023-11-22T07:25:14;5.10;99.90
19945;DHT22;10134;50.952;6.930;2023-11-22T07:27:46;5.10;99.90
19945;DHT22;10134;50.952;6.930;2023-11-22T07:30:15;5.10;99.90
19945;DHT22;10134;50.952;6.930;2023-11-22T07:32:46;5.10;99.90
19945;DHT22;10134;50.952;6.930;2023-11-22T07:35:16;5.10;99.90
19945;DHT22;10134;50.952;6.930;2023-11-22T07:37:47;5.10;99.90
19945;DHT22;10134;50.952;6.930;2023-11-22T07:40:19;5.10;99.90
19945;DHT22;10134;50.952;6.930;2023-11-22T07:42:49;5.10;99.90
19945;DHT22;10134;50.952;6.930;2023-11-22T07:45:17;5.10;99.90
19945;DHT22;10134;50.952;6.930;2023-11-22T07:47:46;5.10;99.90
19945;DHT22;10134;50.952;6.930;2023-11-22T07:50:15;5.20;99.90
19945;DHT22;10134;50.952;6.930;2023-11-22T07:52:45;5.20;99.90
19945;DHT22;10134;50.952;6.930;2023-11-22T07:55:14;5.20;99.90
19945;DHT22;10134;50.952;6.930;2023-11-22T07:57:47;5.20;99.90
19945;DHT22;10134;50.952;6.930;2023-11-22T08:00:17;5.20;99.90
19945;DHT22;10134;50.952;6.930;2023-11-22T08:02:46;5.20;99.90
19945;DHT22;10134;50.952;6.930;2023-11-22T08:05:15;5.20;99.90
19945;DHT22;10134;50.952;6.930;2023-11-22T08:07:45;5.20;99.90
19945;DHT22;10134;50.952;6.930;2023-11-22T08:10:16;5.20;99.90
19945;DHT22;10134;50.952;6.930;2023-11-22T08:12:49;5.20;99.90
19945;DHT22;10134;50.952;6.930;2023-11-22T08:15:18;5.20;99.90
19945;DHT22;10134;50.952;6.930;2023-11-22T08:17:47;5.20;99.90
19945;DHT22;10134;50.952;6.930;2023-11-22T08:20:16;5.30;99.90
19945;DHT22;10134;50.952;6.930;2023-11-22T08:22:46;5.40;99.90
19945;DHT22;10134;50.952;6.930;2023-11-22T08:25:17;5.40;99.90
19945;DHT22;10134;50.952;6.930;2023-11-22T08:27:46;5.50;99.90
19945;DHT22;10134;50.952;6.930;2023-11-22T08:30:16;5.50;99.90
19945;DHT22;10134;50.952;6.930;2023-11-22T08:32:46;5.50;99.90
19945;DHT22;10134;50.952;6.930;2023-11-22T08:35:21;5.50;99.90
19945;DHT22;10134;50.952;6.930;2023-11-22T08:37:51;5.50;99.90
19945;DHT22;10134;50.952;6.930;2023-11-22T08:40:20;5.60;99.90
19945;DHT22;10134;50.952;6.930;2023-11-22T08:42:49;5.60;99.90
19945;DHT22;10134;50.952;6.930;2023-11-22T08:45:21;5.70;99.90
19945;DHT22;10134;50.952;6.930;2023-11-22T08:47:50;5.70;99.90
19945;DHT22;10134;50.952;6.930;2023-11-22T08:50:19;5.70;99.90
19945;DHT22;10134;50.952;6.930;2023-11-22T08:52:48;5.80;99.90
19945;DHT22;10134;50.952;6.930;2023-11-22T08:55:20;5.80;99.90
19945;DHT22;10134;50.952;6.930;2023-11-22T08:57:49;5.80;99.90
19945;DHT22;10134;50.952;6.930;2023-11-22T09:00:18;5.80;99.90
19945;DHT22;10134;50.952;6.930;2023-11-22T09:02:53;5.90;99.90
19945;DHT22;10134;50.952;6.930;2023-11-22T09:05:22;5.90;99.90
19945;DHT22;10134;50.952;6.930;2023-11-22T09:07:52;6.00;99.90
19945;DHT22;10134;50.952;6.930;2023-11-22T09:10:22;6.00;99.90
19945;DHT22;10134;50.952;6.930;2023-11-22T09:12:51;6.10;99.90
19945;DHT22;10134;50.952;6.930;2023-11-22T09:15:20;6.10;99.90
19945;DHT22;10134;50.952;6.930;2023-11-22T09:17:55;6.20;99.90
19945;DHT22;10134;50.952;6.930;2023-11-22T09:20:25;6.20;99.90
19945;DHT22;10134;50.952;6.930;2023-11-22T09:22:54;6.20;99.90
19945;DHT22;10134;50.952;6.930;2023-11-22T09:25:24;6.20;99.90
19945;DHT22;10134;50.952;6.930;2023-11-22T09:27:54;6.30;99.90
19945;DHT22;10134;50.952;6.930;2023-11-22T09:30:27;6.30;99.90
19945;DHT22;10134;50.952;6.930;2023-11-22T09:33:08;6.30;99.90
19945;DHT22;10134;50.952;6.930;2023-11-22T09:35:38;6.40;99.90
19945;DHT22;10134;50.952;6.930;2023-11-22T09:38:08;6.40;99.90
19945;DHT22;10134;50.952;6.930;2023-11-22T09:40:41;6.50;99.90
19945;DHT22;10134;50.952;6.930;2023-11-22T09:43:11;6.60;99.90
19945;DHT22;10134;50.952;6.930;2023-11-22T09:45:42;6.60;99.90
19945;DHT22;10134;50.952;6.930;2023-11-22T09:48:18;6.70;99.90
19945;DHT22;10134;50.952;6.930;2023-11-22T09:50:53;6.70;99.90
19945;DHT22;10134;50.952;6.930;2023-11-22T09:53:29;6.70;99.90
19945;DHT22;10134;50.952;6.930;2023-11-22T09:55:59;6.70;99.90
19945;DHT22;10134;50.952;6.930;2023-11-22T09:58:30;6.80;99.90
19945;DHT22;10134;50.952;6.930;2023-11-22T10:01:00;6.80;99.90
19945;DHT22;10134;50.952;6.930;2023-11-22T10:03:31;6.80;99.90
19945;DHT22;10134;50.952;6.930;2023-11-22T10:06:00;6.90;99.90
19945;DHT22;10134;50.952;6.930;2023-11-22T10:08:32;6.90;99.90
19945;DHT22;10134;50.952;6.930;2023-11-22T10:11:03;6.90;99.90
19945;DHT22;10134;50.952;6.930;2023-11-22T10:13:33;7.00;99.90
19945;DHT22;10134;50.952;6.930;2023-11-22T10:16:09;7.00;99.90
19945;DHT22;10134;50.952;6.930;2023-11-22T10:18:41;7.10;99.90
19945;DHT22;10134;50.952;6.930;2023-11-22T10:21:19;7.10;99.90
19945;DHT22;10134;50.952;6.930;2023-11-22T10:23:50;7.20;99.90
19945;DHT22;10134;50.952;6.930;2023-11-22T10:26:20;7.20;99.90
19945;DHT22;10134;50.952;6.930;2023-11-22T10:28:51;7.30;99.90
19945;DHT22;10134;50.952;6.930;2023-11-22T10:31:20;7.30;99.90
19945;DHT22;10134;50.952;6.930;2023-11-22T10:33:52;7.40;99.90
19945;DHT22;10134;50.952;6.930;2023-11-22T10:36:22;7.40;99.90
19945;DHT22;10134;50.952;6.930;2023-11-22T10:38:51;7.50;99.90
19945;DHT22;10134;50.952;6.930;2023-11-22T10:41:21;7.60;99.90
19945;DHT22;10134;50.952;6.930;2023-11-22T10:43:52;7.60;99.90
19945;DHT22;10134;50.952;6.930;2023-11-22T10:46:27;7.70;99.90
19945;DHT22;10134;50.952;6.930;2023-11-22T10:48:58;7.70;99.90
19945;DHT22;10134;50.952;6.930;2023-11-22T10:51:30;7.70;99.90
19945;DHT22;10134;50.952;6.930;2023-11-22T10:54:01;7.80;99.90
19945;DHT22;10134;50.952;6.930;2023-11-22T10:56:38;7.80;99.90
19945;DHT22;10134;50.952;6.930;2023-11-22T10:59:11;7.80;99.90
19945;DHT22;10134;50.952;6.930;2023-11-22T11:01:44;7.80;99.90
19945;DHT22;10134;50.952;6.930;2023-11-22T11:04:24;7.80;99.90
19945;DHT22;10134;50.952;6.930;2023-11-22T11:06:54;7.80;99.90
19945;DHT22;10134;50.952;6.930;2023-11-22T11:09:24;7.90;99.90
19945;DHT22;10134;50.952;6.930;2023-11-22T11:12:00;7.90;99.90
19945;DHT22;10134;50.952;6.930;2023-11-22T11:14:33;7.90;99.90
19945;DHT22;10134;50.952;6.930;2023-11-22T11:17:02;7.90;99.90
19945;DHT22;10134;50.952;6.930;2023-11-22T11:19:34;8.00;99.90
19945;DHT22;10134;50.952;6.930;2023-11-22T11:22:03;8.00;99.90
19945;DHT22;10134;50.952;6.930;2023-11-22T11:24:39;8.00;99.90
19945;DHT22;10134;50.952;6.930;2023-11-22T11:27:10;8.00;99.90
19945;DHT22;10134;50.952;6.930;2023-11-22T11:29:39;8.00;99.90
19945;DHT22;10134;50.952;6.930;2023-11-22T11:32:12;8.00;99.90
19945;DHT22;10134;50.952;6.930;2023-11-22T11:34:49;8.00;99.90
19945;DHT22;10134;50.952;6.930;2023-11-22T11:37:21;8.10;99.90
19945;DHT22;10134;50.952;6.930;2023-11-22T11:39:50;8.10;99.90
19945;DHT22;10134;50.952;6.930;2023-11-22T11:42:19;8.10;99.90
19945;DHT22;10134;50.952;6.930;2023-11-22T11:45:03;8.10;99.90
19945;DHT22;10134;50.952;6.930;2023-11-22T11:47:33;8.10;99.90
19945;DHT22;10134;50.952;6.930;2023-11-22T11:50:04;8.10;99.90
19945;DHT22;10134;50.952;6.930;2023-11-22T11:52:33;8.10;99.90
19945;DHT22;10134;50.952;6.930;2023-11-22T11:55:04;8.10;99.90
19945;DHT22;10134;50.952;6.930;2023-11-22T11:57:33;8.20;99.90
19945;DHT22;10134;50.952;6.930;2023-11-22T12:00:04;8.20;99.90
19945;DHT22;10134;50.952;6.930;2023-11-22T12:02:40;8.20;99.90
19945;DHT22;10134;50.952;6.930;2023-11-22T12:05:10;8.30;99.90
19945;DHT22;10134;50.952;6.930;2023-11-22T12:07:40;8.30;99.90
19945;DHT22;10134;50.952;6.930;2023-11-22T12:10:11;8.40;99.90
19945;DHT22;10134;50.952;6.930;2023-11-22T12:12:45;8.40;99.90
19945;DHT22;10134;50.952;6.930;2023-11-22T12:15:14;8.40;99.90
19945;DHT22;10134;50.952;6.930;2023-11-22T12:17:43;8.50;99.90
19945;DHT22;10134;50.952;6.930;2023-11-22T12:20:15;8.50;99.90
19945;DHT22;10134;50.952;6.930;2023-11-22T12:22:47;8.50;99.90
19945;DHT22;10134;50.952;6.930;2023-11-22T12:25:16;8.50;99.90
19945;DHT22;10134;50.952;6.930;2023-11-22T12:27:45;8.60;99.90
19945;DHT22;10134;50.952;6.930;2023-11-22T12:30:33;8.60;99.90
19945;DHT22;10134;50.952;6.930;2023-11-22T12:33:04;8.50;99.90
19945;DHT22;10134;50.952;6.930;2023-11-22T12:35:35;8.50;99.90
19945;DHT22;10134;50.952;6.930;2023-11-22T12:38:05;8.40;99.90
19945;DHT22;10134;50.952;6.930;2023-11-22T12:40:34;8.30;99.90
19945;DHT22;10134;50.952;6.930;2023-11-22T12:43:04;8.30;99.90
19945;DHT22;10134;50.952;6.930;2023-11-22T12:45:34;8.20;99.90
19945;DHT22;10134;50.952;6.930;2023-11-22T12:48:23;8.20;99.90
19945;DHT22;10134;50.952;6.930;2023-11-22T12:50:54;8.20;99.90
19945;DHT22;10134;50.952;6.930;2023-11-22T12:53:24;8.10;99.90
19945;DHT22;10134;50.952;6.930;2023-11-22T12:55:56;8.20;99.90
19945;DHT22;10134;50.952;6.930;2023-11-22T12:58:25;8.20;99.90
19945;DHT22;10134;50.952;6.930;2023-11-22T13:00:55;8.20;99.90
19945;DHT22;10134;50.952;6.930;2023-11-22T13:03:29;8.20;99.90
19945;DHT22;10134;50.952;6.930;2023-11-22T13:06:01;8.20;99.90
19945;DHT22;10134;50.952;6.930;2023-11-22T13:08:30;8.20;99.90
19945;DHT22;10134;50.952;6.930;2023-11-22T13:11:00;8.20;99.90
19945;DHT22;10134;50.952;6.930;2023-11-22T13:13:29;8.20;99.90
19945;DHT22;10134;50.952;6.930;2023-11-22T13:15:59;8.20;99.90
19945;DHT22;10134;50.952;6.930;2023-11-22T13:18:27;8.20;99.90
19945;DHT22;10134;50.952;6.930;2023-11-22T13:20:56;8.20;99.90
19945;DHT22;10134;50.952;6.930;2023-11-22T13:23:27;8.20;99.90
19945;DHT22;10134;50.952;6.930;2023-11-22T13:25:56;8.20;99.90
19945;DHT22;10134;50.952;6.930;2023-11-22T13:28:25;8.30;99.90
19945;DHT22;10134;50.952;6.930;2023-11-22T13:30:53;8.20;99.90
19945;DHT22;10134;50.952;6.930;2023-11-22T13:33:22;8.30;99.90
19945;DHT22;10134;50.952;6.930;2023-11-22T13:35:51;8.30;99.90
19945;DHT22;10134;50.952;6.930;2023-11-22T13:38:20;8.30;99.90
19945;DHT22;10134;50.952;6.930;2023-11-22T13:40:50;8.30;99.90
19945;DHT22;10134;50.952;6.930;2023-11-22T13:43:19;8.30;99.90
19945;DHT22;10134;50.952;6.930;2023-11-22T13:45:48;8.20;99.90
19945;DHT22;10134;50.952;6.930;2023-11-22T13:48:18;8.20;99.90
19945;DHT22;10134;50.952;6.930;2023-11-22T13:50:46;8.30;99.90
19945;DHT22;10134;50.952;6.930;2023-11-22T13:53:15;8.30;99.90
19945;DHT22;10134;50.952;6.930;2023-11-22T13:55:50;8.30;99.90
19945;DHT22;10134;50.952;6.930;2023-11-22T13:58:21;8.30;99.90
19945;DHT22;10134;50.952;6.930;2023-11-22T14:00:50;8.30;99.90
19945;DHT22;10134;50.952;6.930;2023-11-22T14:03:21;8.40;99.90
19945;DHT22;10134;50.952;6.930;2023-11-22T14:05:51;8.40;99.90
19945;DHT22;10134;50.952;6.930;2023-11-22T14:08:20;8.40;99.90
19945;DHT22;10134;50.952;6.930;2023-11-22T14:10:50;8.30;99.90
19945;DHT22;10134;50.952;6.930;2023-11-22T14:13:21;8.30;99.90
19945;DHT22;10134;50.952;6.930;2023-11-22T14:15:50;8.30;99.90
19945;DHT22;10134;50.952;6.930;2023-11-22T14:18:19;8.30;99.90
19945;DHT22;10134;50.952;6.930;2023-11-22T14:20:51;8.30;99.90
19945;DHT22;10134;50.952;6.930;2023-11-22T14:23:21;8.30;99.90
19945;DHT22;10134;50.952;6.930;2023-11-22T14:25:51;8.30;99.90
19945;DHT22;10134;50.952;6.930;2023-11-22T14:28:20;8.30;99.90
19945;DHT22;10134;50.952;6.930;2023-11-22T14:30:50;8.30;99.90
19945;DHT22;10134;50.952;6.930;2023-11-22T14:33:22;8.20;99.90
19945;DHT22;10134;50.952;6.930;2023-11-22T14:35:51;8.20;99.90
19945;DHT22;10134;50.952;6.930;2023-11-22T14:38:20;8.20;99.90
19945;DHT22;10134;50.952;6.930;2023-11-22T14:40:51;8.20;99.90
19945;DHT22;10134;50.952;6.930;2023-11-22T14:43:20;8.20;99.90
19945;DHT22;10134;50.952;6.930;2023-11-22T14:45:49;8.10;99.90
19945;DHT22;10134;50.952;6.930;2023-11-22T14:48:18;8.10;99.90
19945;DHT22;10134;50.952;6.930;2023-11-22T14:50:47;8.10;99.90
19945;DHT22;10134;50.952;6.930;2023-11-22T14:53:15;8.10;99.90
19945;DHT22;10134;50.952;6.930;2023-11-22T14:55:44;8.10;99.90
19945;DHT22;10134;50.952;6.930;2023-11-22T14:58:14;8.10;99.90
19945;DHT22;10134;50.952;6.930;2023-11-22T15:00:43;8.10;99.90
19945;DHT22;10134;50.952;6.930;2023-11-22T15:03:12;8.00;99.90
19945;DHT22;10134;50.952;6.930;2023-11-22T15:05:41;8.00;99.90
19945;DHT22;10134;50.952;6.930;2023-11-22T15:08:10;8.00;99.90
19945;DHT22;10134;50.952;6.930;2023-11-22T15:10:39;7.90;99.90
19945;DHT22;10134;50.952;6.930;2023-11-22T15:13:08;7.90;99.90
19945;DHT22;10134;50.952;6.930;2023-11-22T15:15:39;7.80;99.90
19945;DHT22;10134;50.952;6.930;2023-11-22T15:18:08;7.70;99.90
19945;DHT22;10134;50.952;6.930;2023-11-22T15:20:38;7.70;99.90
19945;DHT22;10134;50.952;6.930;2023-11-22T15:23:07;7.70;99.90
19945;DHT22;10134;50.952;6.930;2023-11-22T15:25:39;7.70;99.90
19945;DHT22;10134;50.952;6.930;2023-11-22T15:28:09;7.60;99.90
19945;DHT22;10134;50.952;6.930;2023-11-22T15:30:39;7.60;99.90
19945;DHT22;10134;50.952;6.930;2023-11-22T15:33:08;7.60;99.90
19945;DHT22;10134;50.952;6.930;2023-11-22T15:35:37;7.60;99.90
19945;DHT22;10134;50.952;6.930;2023-11-22T15:38:06;7.50;99.90
19945;DHT22;10134;50.952;6.930;2023-11-22T15:40:35;7.50;99.90
19945;DHT22;10134;50.952;6.930;2023-11-22T15:43:04;7.50;99.90
19945;DHT22;10134;50.952;6.930;2023-11-22T15:45:33;7.50;99.90
19945;DHT22;10134;50.952;6.930;2023-11-22T15:48:04;7.50;99.90
19945;DHT22;10134;50.952;6.930;2023-11-22T15:50:33;7.40;99.90
19945;DHT22;10134;50.952;6.930;2023-11-22T15:53:02;7.40;99.90
19945;DHT22;10134;50.952;6.930;2023-11-22T15:55:30;7.40;99.90
19945;DHT22;10134;50.952;6.930;2023-11-22T15:58:00;7.40;99.90
19945;DHT22;10134;50.952;6.930;2023-11-22T16:00:29;7.40;99.90
19945;DHT22;10134;50.952;6.930;2023-11-22T16:02:58;7.40;99.90